Time;durP1;ratioP1;P1;durP2;ratioP2;P2;SDS_P1;SDS_P2;PMS_P1;PMS_P2;Temp;Humidity;BMP_temperature;BMP_pressure;BME280_temperature;BME280_humidity;BME280_pressure;Samples;Min_cycle;Max_cycle;Signal;HPM_P1;HPM_P2
2022/10/19 00:00:45;;;;;;;13.50;7.43;;;;;;;4.83;75.57;100039.09;4964469;28;20045;-90
2022/10/19 00:03:11;;;;;;;10.70;5.90;;;;;;;4.77;75.19;100021.28;4947570;28;20163;-91
2022/10/19 00:05:36;;;;;;;15.52;6.22;;;;;;;4.83;75.42;100028.41;4928161;28;20027;-91
2022/10/19 00:08:01;;;;;;;9.15;6.00;;;;;;;4.62;75.19;99997.56;4942710;28;20030;-91
2022/10/19 00:10:27;;;;;;;8.57;5.78;;;;;;;4.70;74.79;100021.31;4938402;28;20055;-90
2022/10/19 00:12:52;;;;;;;13.77;5.97;;;;;;;4.56;74.78;100001.91;4935603;28;20026;-89
2022/10/19 00:15:18;;;;;;;10.40;6.57;;;;;;;4.52;74.77;99999.88;4949364;28;20030;-89
2022/10/19 00:17:43;;;;;;;11.13;5.57;;;;;;;4.62;75.31;100013.56;4947139;28;20019;-90
2022/10/19 00:20:10;;;;;;;12.23;5.70;;;;;;;4.56;74.85;99985.91;4933217;28;20033;-89
2022/10/19 00:22:35;;;;;;;9.70;5.72;;;;;;;4.55;74.29;99999.47;4930326;28;20034;-89
2022/10/19 00:25:00;;;;;;;8.45;5.95;;;;;;;4.47;74.58;100002.38;4934506;28;20081;-90
2022/10/19 00:27:26;;;;;;;10.80;6.32;;;;;;;4.43;74.91;100012.63;4934001;28;20028;-88
2022/10/19 00:29:51;;;;;;;10.82;5.95;;;;;;;4.28;75.25;100001.44;4928035;28;20030;-89
2022/10/19 00:32:17;;;;;;;9.50;5.30;;;;;;;4.28;75.02;99994.25;4943437;28;20489;-91
2022/10/19 00:34:42;;;;;;;9.77;5.88;;;;;;;4.18;75.12;99980.56;4935302;28;20142;-89
2022/10/19 00:37:08;;;;;;;14.02;6.20;;;;;;;4.16;75.23;99979.94;4934388;28;20026;-89
2022/10/19 00:39:33;;;;;;;9.18;5.78;;;;;;;4.15;75.24;99986.28;4950124;28;20030;-90
2022/10/19 00:41:59;;;;;;;11.90;6.30;;;;;;;4.04;75.72;99983.25;4944119;28;20019;-89
2022/10/19 00:44:27;;;;;;;9.35;5.10;;;;;;;4.15;75.93;99997.78;4930924;28;20026;-91
2022/10/19 00:46:53;;;;;;;10.00;6.03;;;;;;;4.12;76.15;99984.88;4961131;28;20030;-90
2022/10/19 00:49:20;;;;;;;11.20;6.15;;;;;;;4.06;76.02;99977.72;4924488;29;20490;-90
2022/10/19 00:51:48;;;;;;;10.60;5.68;;;;;;;4.05;75.84;99965.44;4949686;28;20289;-89
2022/10/19 00:54:13;;;;;;;13.30;6.70;;;;;;;4.06;75.44;99969.72;4936336;28;20037;-90
2022/10/19 00:56:40;;;;;;;18.02;6.20;;;;;;;4.09;75.04;99973.81;4958405;28;20408;-89
2022/10/19 00:59:06;;;;;;;13.93;6.38;;;;;;;3.99;75.27;99964.44;4950456;28;20736;-89
2022/10/19 01:01:31;;;;;;;13.32;6.35;;;;;;;3.99;75.83;99964.44;4968201;28;20069;-89
2022/10/19 01:03:57;;;;;;;14.13;7.10;;;;;;;4.12;75.45;99982.22;4958674;28;20041;-89
2022/10/19 01:06:23;;;;;;;10.20;6.47;;;;;;;3.91;75.21;99953.19;4939209;28;20239;-89
2022/10/19 01:08:48;;;;;;;16.17;6.18;;;;;;;3.88;75.65;99950.94;4963412;28;20014;-89
2022/10/19 01:11:23;;;;;;;19.17;6.57;;;;;;;3.94;75.91;99974.06;4946800;28;20097;-91
2022/10/19 01:14:19;;;;;;;11.82;6.05;;;;;;;3.97;76.13;99968.34;4966868;28;20023;-88
2022/10/19 01:16:58;;;;;;;11.05;5.97;;;;;;;3.94;76.06;99961.56;4978872;28;20023;-89
2022/10/19 01:19:41;;;;;;;8.98;6.07;;;;;;;3.95;76.24;99960.56;4963386;28;20026;-89
2022/10/19 01:22:12;;;;;;;12.48;6.53;;;;;;;3.99;76.09;99959.09;4975347;28;20064;-88
2022/10/19 01:24:48;;;;;;;14.40;7.85;;;;;;;4.02;76.51;99960.53;4947383;28;20023;-89
2022/10/19 01:27:39;;;;;;;11.80;6.43;;;;;;;3.90;76.01;99947.06;4953702;28;20022;-88
2022/10/19 01:30:15;;;;;;;15.80;6.63;;;;;;;3.79;76.65;99940.50;4965826;28;20030;-89
2022/10/19 01:33:01;;;;;;;11.88;6.32;;;;;;;3.89;77.22;99949.91;4950102;28;20169;-89
2022/10/19 01:35:51;;;;;;;11.23;6.07;;;;;;;3.89;76.61;99956.06;4985317;28;20023;-89
2022/10/19 01:38:40;;;;;;;13.88;5.80;;;;;;;3.73;75.89;99927.22;4943150;28;20544;-89
2022/10/19 01:41:11;;;;;;;7.63;5.82;;;;;;;3.80;76.26;99941.34;4952271;28;20034;-88
2022/10/19 01:43:44;;;;;;;11.85;5.88;;;;;;;3.81;75.97;99938.47;4960881;28;20034;-91
2022/10/19 01:46:15;;;;;;;9.85;5.50;;;;;;;3.80;76.31;99936.84;4949671;28;20481;-88
2022/10/19 01:48:43;;;;;;;8.80;5.97;;;;;;;3.83;76.02;99938.25;4945681;28;20030;-89
2022/10/19 01:51:17;;;;;;;12.88;5.70;;;;;;;3.79;75.78;99927.19;4950417;28;20400;-89
2022/10/19 01:53:45;;;;;;;11.27;6.00;;;;;;;3.91;75.59;99931.88;4930320;28;20118;-89
2022/10/19 01:56:11;;;;;;;10.95;6.22;;;;;;;3.81;75.87;99924.31;4929021;28;20473;-89
2022/10/19 01:58:36;;;;;;;8.40;5.05;;;;;;;3.88;75.79;99930.47;4932075;28;20038;-88
2022/10/19 02:01:04;;;;;;;10.65;5.50;;;;;;;3.89;75.73;99928.63;4933617;28;20026;-89
2022/10/19 02:03:29;;;;;;;8.95;5.30;;;;;;;3.81;75.75;99917.16;4932243;28;20034;-89
2022/10/19 02:05:55;;;;;;;7.68;4.82;;;;;;;3.82;75.42;99924.13;4929134;28;20023;-89
2022/10/19 02:08:29;;;;;;;10.30;5.93;;;;;;;3.81;75.53;99919.81;4931240;28;20057;-89
2022/10/19 02:10:54;;;;;;;8.52;4.55;;;;;;;3.89;75.31;99917.97;4936346;28;20073;-88
2022/10/19 02:13:20;;;;;;;7.13;4.57;;;;;;;3.85;75.64;99918.38;4943900;28;20073;-89
2022/10/19 02:15:47;;;;;;;8.35;5.03;;;;;;;3.83;75.82;99893.78;4953774;28;20531;-89
2022/10/19 02:18:14;;;;;;;8.00;4.88;;;;;;;3.95;75.38;99917.13;4934742;28;20034;-89
2022/10/19 02:20:40;;;;;;;7.90;5.45;;;;;;;3.78;74.83;99890.94;4935135;28;20401;-89
2022/10/19 02:23:05;;;;;;;8.90;5.18;;;;;;;3.77;74.76;99897.28;4952257;28;20026;-89
2022/10/19 02:25:31;;;;;;;8.80;4.90;;;;;;;3.72;75.39;99907.78;4939793;28;20022;-89
2022/10/19 02:27:57;;;;;;;9.02;4.93;;;;;;;3.68;75.36;99900.41;4951705;28;20026;-89
2022/10/19 02:30:23;;;;;;;15.60;5.28;;;;;;;3.54;74.84;99894.31;4951649;28;20055;-89
2022/10/19 02:32:48;;;;;;;11.30;5.18;;;;;;;3.56;74.68;99906.38;4934856;28;20182;-89
2022/10/19 02:35:14;;;;;;;9.32;5.63;;;;;;;3.32;75.17;99875.94;4949709;28;20034;-89
2022/10/19 02:37:40;;;;;;;6.53;4.78;;;;;;;3.31;75.31;99879.63;4945470;28;20026;-89
2022/10/19 02:40:06;;;;;;;10.40;4.95;;;;;;;3.35;75.94;99902.13;4933992;28;20027;-89
2022/10/19 02:42:55;;;;;;;12.88;4.93;;;;;;;3.38;75.54;99912.38;4943897;28;20035;-89
2022/10/19 02:45:25;;;;;;;10.50;5.97;;;;;;;3.23;75.79;99893.94;4954428;28;20062;-89
2022/10/19 02:47:59;;;;;;;13.52;4.70;;;;;;;3.18;75.84;99892.97;4936197;28;20061;-89
2022/10/19 02:50:25;;;;;;;7.28;4.88;;;;;;;3.12;76.22;99896.44;4947370;28;20065;-89
2022/10/19 02:52:51;;;;;;;9.00;5.47;;;;;;;3.05;75.83;99891.13;4945471;28;20060;-88
2022/10/19 02:55:16;;;;;;;8.32;5.20;;;;;;;3.01;76.48;99881.94;4933969;28;20023;-89
2022/10/19 02:57:42;;;;;;;11.23;5.20;;;;;;;3.07;76.42;99894.38;4935610;28;20118;-89
2022/10/19 03:00:08;;;;;;;10.98;5.85;;;;;;;3.06;76.14;99892.75;4930179;28;20121;-89
2022/10/19 03:02:33;;;;;;;14.70;5.53;;;;;;;3.04;76.48;99895.63;4937443;28;20032;-89
2022/10/19 03:04:59;;;;;;;6.22;4.25;;;;;;;2.96;76.17;99887.84;4948189;28;20026;-89
2022/10/19 03:07:24;;;;;;;9.43;6.07;;;;;;;2.95;76.74;99896.88;4939004;28;20030;-89
2022/10/19 03:09:50;;;;;;;9.90;5.68;;;;;;;2.94;76.49;99905.03;4941097;28;20509;-89
2022/10/19 03:12:15;;;;;;;21.55;6.07;;;;;;;3.04;76.78;99906.25;4931392;28;20034;-89
2022/10/19 03:14:41;;;;;;;7.88;5.00;;;;;;;2.98;76.66;99892.97;4931128;28;20020;-89
2022/10/19 03:17:06;;;;;;;9.68;5.93;;;;;;;2.96;76.95;99895.81;4929589;28;20033;-89
2022/10/19 03:19:33;;;;;;;8.10;5.00;;;;;;;2.93;76.78;99876.81;4931822;28;20061;-89
2022/10/19 03:21:58;;;;;;;13.30;5.53;;;;;;;3.01;76.61;99887.25;4928741;28;20559;-89
2022/10/19 03:24:24;;;;;;;10.15;5.10;;;;;;;3.06;76.70;99892.75;4945573;28;20030;-89
2022/10/19 03:26:49;;;;;;;9.65;5.50;;;;;;;3.02;76.22;99897.66;4927728;28;20481;-90
2022/10/19 03:29:15;;;;;;;6.45;4.85;;;;;;;2.91;76.14;99887.66;4926895;28;20054;-89
2022/10/19 03:31:43;;;;;;;11.57;5.00;;;;;;;2.79;76.56;99871.50;4927233;28;20027;-90
2022/10/19 03:34:09;;;;;;;8.82;4.88;;;;;;;2.80;75.82;99874.97;4935567;28;20109;-89
2022/10/19 03:36:36;;;;;;;8.50;5.53;;;;;;;2.80;76.40;99877.63;4929706;28;20040;-90
2022/10/19 03:39:03;;;;;;;10.70;4.97;;;;;;;2.84;76.22;99884.16;4930851;28;20045;-89
2022/10/19 03:41:31;;;;;;;10.48;5.63;;;;;;;2.75;75.90;99880.91;4935293;28;20030;-89
2022/10/19 03:43:56;;;;;;;6.05;4.40;;;;;;;2.73;75.57;99874.97;4937053;28;20022;-89
2022/10/19 03:46:22;;;;;;;11.55;5.18;;;;;;;2.77;76.64;99888.69;4945305;28;20504;-89
2022/10/19 03:48:47;;;;;;;10.55;4.63;;;;;;;2.79;75.97;99889.31;4933610;28;20049;-88
2022/10/19 03:51:14;;;;;;;11.80;5.47;;;;;;;2.87;75.97;99905.06;4930836;28;20512;-90
2022/10/19 03:53:40;;;;;;;8.70;5.20;;;;;;;2.79;76.19;99889.31;4943030;28;20049;-90
2022/10/19 03:56:07;;;;;;;10.18;5.47;;;;;;;2.80;76.50;99889.09;4947120;28;20023;-92
2022/10/19 03:58:34;;;;;;;8.82;5.20;;;;;;;2.72;76.11;99877.81;4944080;28;20030;-92
2022/10/19 04:00:59;;;;;;;18.77;5.80;;;;;;;2.77;75.84;99886.03;4930370;28;20125;-92
2022/10/19 04:03:25;;;;;;;10.35;5.53;;;;;;;2.72;75.93;99864.53;4926085;29;20178;-93
2022/10/19 04:05:51;;;;;;;10.88;5.43;;;;;;;2.80;76.19;99882.94;4946906;28;20522;-92
2022/10/19 04:08:16;;;;;;;12.35;5.85;;;;;;;2.68;75.54;99873.94;4935279;28;20038;-93
2022/10/19 04:10:42;;;;;;;11.30;5.47;;;;;;;2.79;76.10;99881.31;4940262;28;20968;-93
2022/10/19 04:13:07;;;;;;;10.02;6.43;;;;;;;2.70;76.00;99867.41;4932158;28;20058;-93
2022/10/19 04:15:33;;;;;;;13.75;6.47;;;;;;;2.82;76.19;99876.41;4927722;28;20461;-93
2022/10/19 04:17:59;;;;;;;11.85;6.78;;;;;;;2.77;75.73;99867.41;4927948;28;20386;-95
2022/10/19 04:20:24;;;;;;;9.63;6.63;;;;;;;2.63;76.14;99866.59;4944399;28;20030;-92
2022/10/19 04:22:51;;;;;;;15.77;7.88;;;;;;;2.74;76.07;99879.28;4937999;28;20030;-92
2022/10/19 04:25:17;;;;;;;17.48;7.30;;;;;;;2.59;75.53;99868.84;4928570;28;20038;-93
2022/10/19 04:27:42;;;;;;;14.75;7.38;;;;;;;2.57;76.22;99873.56;4942726;28;20026;-93
2022/10/19 04:30:08;;;;;;;14.23;6.65;;;;;;;2.43;76.75;99859.44;4943065;28;20034;-92
2022/10/19 04:32:34;;;;;;;10.43;7.78;;;;;;;2.58;76.06;99875.19;4948739;28;20049;-94
2022/10/19 04:35:02;;;;;;;11.27;7.75;;;;;;;2.58;76.40;99871.72;4948782;28;20030;-94
2022/10/19 04:37:28;;;;;;;12.35;7.82;;;;;;;2.60;76.35;99878.44;4948459;28;20481;-94
2022/10/19 04:39:53;;;;;;;11.27;6.57;;;;;;;2.36;76.46;99844.50;4943428;28;20042;-93
2022/10/19 04:42:19;;;;;;;13.48;7.43;;;;;;;2.58;76.58;99888.47;4941707;28;20434;-94
2022/10/19 04:44:45;;;;;;;19.50;8.40;;;;;;;2.54;76.43;99879.25;4937681;28;20037;-95
2022/10/19 04:47:10;;;;;;;19.42;6.88;;;;;;;2.64;76.38;99876.22;4950695;28;20030;-93
2022/10/19 04:49:37;;;;;;;12.43;7.18;;;;;;;2.59;76.04;99862.69;4946842;28;20394;-95
2022/10/19 04:52:03;;;;;;;12.75;7.15;;;;;;;2.59;76.48;99868.00;4926847;28;20015;-93
2022/10/19 04:54:31;;;;;;;17.08;7.38;;;;;;;2.62;76.59;99864.97;4944657;28;20095;-95
2022/10/19 04:56:57;;;;;;;12.30;7.22;;;;;;;2.67;76.78;99869.66;4961819;28;20502;-93
2022/10/19 04:59:23;;;;;;;11.48;6.88;;;;;;;2.63;76.03;99869.25;4957294;28;20045;-94
2022/10/19 05:01:51;;;;;;;14.43;7.53;;;;;;;2.60;76.18;99865.16;4932530;29;20038;-95
2022/10/19 05:04:17;;;;;;;15.93;8.10;;;;;;;2.59;76.06;99862.69;4929636;28;20054;-95
2022/10/19 05:07:05;;;;;;;12.75;7.22;;;;;;;2.74;76.58;99879.28;4949572;28;20030;-96
2022/10/19 05:09:30;;;;;;;16.02;7.68;;;;;;;2.71;75.74;99869.03;4952366;28;20045;-95
2022/10/19 05:11:55;;;;;;;13.45;7.72;;;;;;;2.74;75.48;99868.66;4929780;28;20034;-94
2022/10/19 05:14:24;;;;;;;15.95;8.38;;;;;;;2.70;75.64;99864.75;4945048;28;20031;-93
2022/10/19 05:16:49;;;;;;;20.88;8.85;;;;;;;2.88;75.81;99880.06;4933878;28;21470;-94
2022/10/19 05:19:15;;;;;;;13.52;7.20;;;;;;;2.99;75.08;99870.69;4939368;28;20034;-95
2022/10/19 05:21:44;;;;;;;14.65;7.75;;;;;;;2.92;75.02;99854.72;4943852;28;20054;-95
2022/10/19 05:24:13;;;;;;;13.40;8.20;;;;;;;2.90;75.19;99856.75;4933740;28;20042;-93
2022/10/19 05:26:42;;;;;;;15.50;8.40;;;;;;;3.00;74.63;99866.97;4929657;28;20106;-93
2022/10/19 05:29:22;;;;;;;19.10;8.15;;;;;;;2.98;74.84;99861.06;4934375;28;20027;-95
2022/10/19 05:31:48;;;;;;;22.88;10.13;;;;;;;3.22;74.71;99878.22;4931164;28;20034;-96
2022/10/19 05:34:16;;;;;;;18.10;10.48;;;;;;;3.30;74.33;99862.03;4943689;28;20026;-93
2022/10/19 05:36:42;;;;;;;32.05;19.48;;;;;;;3.23;74.13;99848.72;4945523;28;20038;-93
2022/10/19 05:39:27;;;;;;;41.47;20.50;;;;;;;3.38;74.25;99843.16;4970885;28;20476;-95
2022/10/19 05:46:59;;;;;;;13.60;8.75;;;;;;;3.97;72.79;99867.91;5021984;28;20049;-95
2022/10/19 05:49:28;;;;;;;15.40;7.30;;;;;;;4.07;72.24;99862.13;4964670;28;20038;-96
2022/10/19 05:51:53;;;;;;;12.70;7.60;;;;;;;4.23;71.61;99858.13;4957728;28;20034;-95
2022/10/19 05:54:30;;;;;;;15.88;8.07;;;;;;;4.25;71.24;99840.06;4951423;28;20030;-96
2022/10/19 05:57:15;;;;;;;20.30;10.50;;;;;;;4.28;71.73;99831.66;4967386;28;20045;-96
2022/10/19 05:59:47;;;;;;;13.57;8.80;;;;;;;4.44;70.81;99843.63;5061114;23;20095;-96
2022/10/19 06:02:14;;;;;;;15.52;9.07;;;;;;;4.55;70.49;99847.47;4996840;28;20045;-96
2022/10/19 06:19:26;;;;;;;11.60;7.68;;;;;;;4.89;70.80;99846.13;4983784;28;20552;-96
2022/10/19 06:22:12;;;;;;;20.02;9.65;;;;;;;4.94;70.26;99832.97;4939777;28;20023;-96
2022/10/19 06:27:26;;;;;;;13.30;7.80;;;;;;;5.29;70.29;99843.06;4868095;29;20045;-94
2022/10/19 06:29:51;;;;;;;16.55;7.88;;;;;;;5.41;69.51;99838.59;4851489;29;20089;-92
2022/10/19 06:32:20;;;;;;;15.15;7.22;;;;;;;5.65;69.49;99836.91;4847646;29;20508;-95
2022/10/19 06:34:48;;;;;;;20.15;9.60;;;;;;;5.96;69.18;99855.66;4837117;29;20052;-96
2022/10/19 06:37:21;;;;;;;21.77;11.05;;;;;;;5.97;68.58;99825.22;4856329;29;20036;-92
2022/10/19 06:39:47;;;;;;;30.08;11.90;;;;;;;6.22;68.20;99830.41;4839918;29;20048;-92
2022/10/19 06:42:15;;;;;;;18.48;7.95;;;;;;;6.35;67.72;99832.91;4864383;29;20045;-93
2022/10/19 06:44:44;;;;;;;23.45;7.45;;;;;;;6.46;67.25;99821.38;4863180;29;20575;-92
2022/10/19 06:47:45;;;;;;;34.30;12.60;;;;;;;6.72;66.56;99832.69;4848110;29;20068;-92
2022/10/19 06:50:10;;;;;;;32.22;13.23;;;;;;;6.78;65.67;99814.91;4861937;29;20433;-93
2022/10/19 06:52:36;;;;;;;13.13;6.43;;;;;;;6.88;64.99;99812.47;4901607;29;20035;-94
2022/10/19 06:55:03;;;;;;;13.90;6.85;;;;;;;7.08;65.35;99826.31;4914915;29;20036;-92
2022/10/19 06:57:28;;;;;;;14.57;7.50;;;;;;;7.19;64.71;99816.63;4906872;29;20039;-95
2022/10/19 06:59:54;;;;;;;16.80;6.85;;;;;;;7.26;63.94;99801.25;4924746;29;20051;-93
2022/10/19 07:02:38;;;;;;;15.30;6.97;;;;;;;7.38;64.25;99803.88;4953428;28;20061;-95
2022/10/19 07:05:06;;;;;;;10.73;6.18;;;;;;;7.78;63.54;99829.06;4960577;28;20026;-95
2022/10/19 07:07:32;;;;;;;10.20;5.40;;;;;;;7.86;62.38;99815.28;4952273;29;20030;-94
2022/10/19 07:09:57;;;;;;;10.80;4.35;;;;;;;8.10;61.79;99818.69;4952900;28;20031;-94
2022/10/19 07:12:23;;;;;;;6.03;3.85;;;;;;;8.28;60.21;99806.94;4964595;28;20062;-95
2022/10/19 07:14:49;;;;;;;9.35;4.50;;;;;;;8.50;60.70;99801.66;4947370;28;20131;-95
2022/10/19 07:17:22;;;;;;;7.93;4.95;;;;;;;8.62;59.86;99805.09;4929855;28;20121;-93
2022/10/19 07:19:51;;;;;;;13.30;4.28;;;;;;;8.83;58.98;99816.13;4927504;29;20051;-95
2022/10/19 07:22:16;;;;;;;7.95;3.40;;;;;;;8.91;58.07;99802.28;4933388;29;20027;-92
2022/10/19 07:24:42;;;;;;;8.50;3.08;;;;;;;9.20;57.19;99823.66;4911907;29;20051;-92
2022/10/19 07:27:07;;;;;;;5.97;3.30;;;;;;;9.36;56.69;99809.34;4928054;28;20046;-93
2022/10/19 07:29:38;;;;;;;8.75;3.67;;;;;;;9.48;56.35;99798.47;4911870;28;20047;-92
2022/10/19 07:32:06;;;;;;;7.82;4.32;;;;;;;9.65;56.21;99796.53;4876349;29;20069;-92
2022/10/19 07:35:05;;;;;;;22.15;14.13;;;;;;;9.77;55.52;99792.88;4862153;29;20097;-95
2022/10/19 07:37:30;;;;;;;5.15;3.40;;;;;;;9.84;55.02;99780.84;4876627;29;20419;-92
2022/10/19 07:40:01;;;;;;;5.25;2.60;;;;;;;10.07;55.06;99803.94;4880816;29;20043;-92
2022/10/19 07:42:30;;;;;;;6.22;4.13;;;;;;;10.27;53.97;99797.94;4897291;29;20044;-94
2022/10/19 07:45:22;;;;;;;5.63;3.60;;;;;;;10.48;53.54;99798.16;4891083;29;20025;-94
2022/10/19 07:47:52;;;;;;;5.78;3.95;;;;;;;10.42;53.87;99772.25;4908843;29;20033;-96
2022/10/19 07:50:23;;;;;;;12.15;8.50;;;;;;;10.57;54.58;99776.94;4871998;29;20045;-92
2022/10/19 07:52:51;;;;;;;6.93;4.80;;;;;;;10.80;54.01;99795.41;4887033;29;20045;-94
2022/10/19 07:55:16;;;;;;;10.05;5.03;;;;;;;10.90;53.88;99773.94;4869742;29;20029;-94
2022/10/19 07:57:44;;;;;;;8.77;5.13;;;;;;;11.01;53.32;99769.41;4886016;29;20454;-95
2022/10/19 08:00:11;;;;;;;9.27;4.22;;;;;;;11.10;52.75;99750.84;4871083;29;20040;-93
2022/10/19 08:02:39;;;;;;;9.85;5.60;;;;;;;11.27;52.47;99759.56;4889289;29;20488;-92
2022/10/19 08:05:28;;;;;;;9.70;4.93;;;;;;;11.28;51.43;99747.69;4943582;29;20050;-93
2022/10/19 08:07:56;;;;;;;10.52;6.60;;;;;;;11.69;51.35;99782.09;4932014;29;20065;-94
2022/10/19 08:10:22;;;;;;;7.47;4.65;;;;;;;11.63;51.41;99748.88;4929642;29;20030;-93
2022/10/19 08:13:19;;;;;;;6.95;4.20;;;;;;;11.72;51.29;99743.78;4934107;28;20047;-96
2022/10/19 08:18:49;;;;;;;;;;;;;;;;;;;;;
2022/10/19 08:21:27;;;;;;;8.18;5.00;;;;;;;12.21;50.04;99739.81;4962734;29;20087;-95
2022/10/19 08:24:34;;;;;;;22.13;11.77;;;;;;;12.27;49.82;99719.84;4935594;29;20047;-96
2022/10/19 08:27:03;;;;;;;6.75;4.40;;;;;;;12.60;49.88;99745.47;4946910;28;20053;-96
2022/10/19 08:29:32;;;;;;;6.07;3.55;;;;;;;12.53;49.59;99717.91;4946281;28;20038;-93
2022/10/19 08:31:57;;;;;;;7.40;3.53;;;;;;;12.69;49.33;99716.78;4944876;28;20033;-93
2022/10/19 08:34:24;;;;;;;10.45;5.75;;;;;;;12.79;48.74;99712.47;4979920;28;20035;-93
2022/10/19 08:37:23;;;;;;;7.22;4.10;;;;;;;13.09;48.50;99727.75;4959494;28;20034;-94
2022/10/19 08:39:48;;;;;;;5.13;3.25;;;;;;;13.10;48.29;99713.16;4922140;29;20054;-92
2022/10/19 08:42:19;;;;;;;10.15;3.90;;;;;;;13.13;48.29;99713.41;4950649;29;20048;-92
2022/10/19 08:45:18;;;;;;;5.68;3.40;;;;;;;13.33;47.64;99709.84;4923431;29;20490;-95
2022/10/19 08:48:24;;;;;;;7.97;4.45;;;;;;;13.50;47.83;99717.59;4944466;29;20046;-96
2022/10/19 08:51:12;;;;;;;5.47;3.38;;;;;;;13.44;46.32;99702.47;5123943;23;20054;-96
2022/10/19 08:54:12;;;;;;;;;;;;;;;;;;;;;
2022/10/19 08:57:20;;;;;;;8.77;4.03;;;;;;;13.73;45.25;99691.72;4965738;28;20505;-94
2022/10/19 08:59:57;;;;;;;10.63;3.60;;;;;;;13.79;45.12;99673.56;4934320;28;20058;-93
2022/10/19 09:02:35;;;;;;;3.85;2.90;;;;;;;14.17;45.30;99713.63;4960217;28;20034;-93
2022/10/19 09:05:24;;;;;;;6.25;3.47;;;;;;;14.20;46.20;99699.53;4972550;28;20484;-96
2022/10/19 09:07:58;;;;;;;7.63;3.20;;;;;;;14.23;45.30;99686.19;4956256;28;20031;-95
2022/10/19 09:10:37;;;;;;;6.90;3.60;;;;;;;14.41;44.30;99690.09;4932459;29;20532;-95
2022/10/19 09:13:20;;;;;;;4.30;2.92;;;;;;;14.55;43.30;99703.78;4943586;28;20096;-94
2022/10/19 09:15:47;;;;;;;5.75;3.33;;;;;;;14.57;43.63;99682.66;4946636;28;20058;-95
2022/10/19 09:18:19;;;;;;;6.10;3.50;;;;;;;14.62;43.18;99676.38;4949748;28;20030;-96
2022/10/19 09:20:47;;;;;;;9.63;3.22;;;;;;;14.66;42.92;99672.00;4964222;28;20026;-95
2022/10/19 09:23:40;;;;;;;8.43;3.28;;;;;;;14.79;42.51;99681.34;4967629;28;20053;-96
2022/10/19 09:26:17;;;;;;;6.05;3.20;;;;;;;14.91;41.98;99687.97;4940577;28;20098;-94
2022/10/19 09:28:49;;;;;;;7.90;2.92;;;;;;;14.94;41.37;99675.72;4946638;28;20030;-95
2022/10/19 09:31:26;;;;;;;5.82;3.03;;;;;;;15.10;41.80;99669.00;4933042;29;20027;-95
2022/10/19 09:34:03;;;;;;;5.72;3.42;;;;;;;15.14;40.92;99669.25;4941151;28;20468;-96
2022/10/19 09:36:46;;;;;;;5.70;2.90;;;;;;;15.23;40.30;99663.97;4945499;29;20042;-96
2022/10/19 09:39:14;;;;;;;5.80;2.95;;;;;;;15.35;40.96;99670.56;4928791;28;20030;-96
2022/10/19 09:41:46;;;;;;;5.97;3.40;;;;;;;15.40;40.21;99666.16;4927695;28;20050;-94
2022/10/19 09:44:11;;;;;;;7.07;3.55;;;;;;;15.52;39.76;99659.22;4934500;28;20033;-96
2022/10/19 09:47:28;;;;;;;10.20;4.38;;;;;;;15.60;39.38;99649.59;4932889;28;20075;-95
2022/10/19 09:50:24;;;;;;;4.00;2.35;;;;;;;15.70;38.78;99659.50;4965598;28;20047;-95
2022/10/19 09:52:54;;;;;;;6.72;2.70;;;;;;;15.78;38.88;99663.50;4945933;28;20034;-93
2022/10/19 09:55:49;;;;;;;6.18;2.90;;;;;;;15.92;38.38;99672.50;4929357;29;20117;-96
2022/10/19 09:58:14;;;;;;;5.78;2.78;;;;;;;16.07;37.41;99674.16;4951162;28;20390;-95
2022/10/19 10:00:49;;;;;;;5.20;2.70;;;;;;;16.05;37.07;99663.56;4959834;28;20065;-94
2022/10/19 10:03:39;;;;;;;4.20;2.60;;;;;;;16.00;36.61;99631.06;4931174;28;20117;-95
2022/10/19 10:06:18;;;;;;;5.70;2.45;;;;;;;16.07;36.69;99636.91;4931411;28;20042;-94
2022/10/19 10:08:56;;;;;;;3.17;2.38;;;;;;;16.13;36.01;99630.28;4937778;28;20030;-96
2022/10/19 10:11:38;;;;;;;4.45;2.58;;;;;;;16.28;35.64;99650.94;4933147;28;20042;-93
2022/10/19 10:14:19;;;;;;;3.33;2.03;;;;;;;16.29;35.22;99647.13;4927829;28;20027;-95
2022/10/19 10:16:45;;;;;;;3.42;2.45;;;;;;;16.40;35.79;99641.50;4940727;28;20051;-93
2022/10/19 10:19:51;;;;;;;6.00;3.60;;;;;;;16.26;35.08;99620.53;4950668;28;20015;-92
2022/10/19 10:22:51;;;;;;;4.13;2.60;;;;;;;16.42;35.02;99629.22;4956906;28;20092;-94
2022/10/19 10:25:42;;;;;;;10.68;4.32;;;;;;;16.51;34.90;99632.03;4951439;28;20067;-96
2022/10/19 10:28:18;;;;;;;8.50;2.10;;;;;;;16.58;34.56;99646.06;4946777;28;20686;-95
2022/10/19 10:31:07;;;;;;;5.25;3.03;;;;;;;16.47;34.48;99607.38;4948424;28;20464;-94
2022/10/19 10:33:35;;;;;;;4.63;2.33;;;;;;;16.57;34.30;99606.38;4935182;28;20039;-94
2022/10/19 10:36:13;;;;;;;4.60;2.17;;;;;;;16.73;34.43;99624.00;4933577;28;20056;-93
2022/10/19 10:39:02;;;;;;;9.90;6.10;;;;;;;16.82;34.53;99620.59;4938569;28;20023;-93
2022/10/19 10:41:27;;;;;;;4.47;2.10;;;;;;;16.76;34.33;99608.97;4918323;29;20114;-94
2022/10/19 10:44:03;;;;;;;3.85;1.92;;;;;;;16.76;33.91;99607.06;4916276;29;20551;-96
2022/10/19 10:46:44;;;;;;;4.75;1.95;;;;;;;16.88;33.38;99608.50;4906666;29;20644;-96
2022/10/19 10:49:18;;;;;;;4.37;2.00;;;;;;;16.98;33.07;99597.41;4924433;29;20031;-93
2022/10/19 10:51:46;;;;;;;2.95;1.92;;;;;;;16.99;32.88;99603.63;4935736;29;20055;-94
2022/10/19 10:54:31;;;;;;;5.57;1.73;;;;;;;17.05;32.63;99599.69;4944009;28;20023;-93
2022/10/19 10:57:17;;;;;;;3.20;1.80;;;;;;;17.19;32.77;99613.28;4947890;28;20089;-94
2022/10/19 11:00:23;;;;;;;2.97;1.80;;;;;;;17.12;32.88;99591.91;4966556;28;20053;-96
2022/10/19 11:03:28;;;;;;;5.50;1.80;;;;;;;17.08;32.06;99580.03;4933615;29;20044;-93
2022/10/19 11:12:28;;;;;;;;;;;;;;;;;;;;;
2022/10/19 11:15:41;;;;;;;2.60;1.60;;;;;;;17.36;31.26;99561.69;4992988;28;20085;-94
2022/10/19 11:18:16;;;;;;;3.65;1.90;;;;;;;17.45;30.55;99550.88;4984477;28;20041;-95
2022/10/19 11:24:33;;;;;;;4.00;2.80;;;;;;;17.82;31.10;99567.94;5048266;23;21311;-96
2022/10/19 11:27:46;;;;;;;3.75;1.80;;;;;;;17.88;31.54;99572.16;5187296;23;20049;-96
2022/10/19 12:06:46;;;;;;;2.92;1.60;;;;;;;18.08;28.87;99508.94;4980311;28;20039;-94
2022/10/19 12:09:23;;;;;;;3.58;1.33;;;;;;;18.16;28.62;99513.63;4955976;28;20026;-94
2022/10/19 12:12:11;;;;;;;2.90;1.75;;;;;;;18.26;28.68;99517.16;4942635;28;20034;-96
2022/10/19 12:14:39;;;;;;;7.05;3.42;;;;;;;18.27;28.72;99508.69;4930622;28;20049;-92
2022/10/19 12:17:10;;;;;;;3.22;2.08;;;;;;;18.30;28.66;99504.50;4927750;28;20029;-93
2022/10/19 12:19:39;;;;;;;2.97;1.55;;;;;;;18.25;28.65;99489.13;4928202;28;20037;-93
2022/10/19 12:22:12;;;;;;;3.15;1.95;;;;;;;18.25;28.59;99501.94;4927342;28;20027;-93
2022/10/19 12:24:40;;;;;;;4.20;1.38;;;;;;;18.30;27.62;99494.44;4930164;28;20030;-92
2022/10/19 12:27:08;;;;;;;4.57;2.28;;;;;;;18.34;28.19;99506.31;4942744;28;20453;-95
2022/10/19 12:29:41;;;;;;;3.95;1.70;;;;;;;18.30;27.87;99490.88;4929919;28;20034;-93
2022/10/19 12:32:14;;;;;;;1.63;1.20;;;;;;;18.27;28.32;99484.16;4928130;28;20022;-94
2022/10/19 12:38:28;;;;;;;2.58;1.52;;;;;;;18.27;28.45;99472.44;4965493;28;20086;-93
2022/10/19 12:41:12;;;;;;;4.15;1.98;;;;;;;18.23;28.73;99466.81;4953883;28;20074;-92
2022/10/19 12:44:00;;;;;;;2.60;1.83;;;;;;;18.36;28.88;99495.06;4945359;28;20026;-95
2022/10/19 12:46:36;;;;;;;8.25;1.73;;;;;;;18.44;29.26;99499.75;4945781;28;20026;-94
2022/10/19 12:49:45;;;;;;;3.10;1.83;;;;;;;18.45;29.03;99500.53;4943791;28;20039;-93
2022/10/19 12:52:10;;;;;;;5.43;1.85;;;;;;;18.26;29.17;99473.56;4948017;28;20063;-94
2022/10/19 12:54:40;;;;;;;9.73;2.38;;;;;;;18.30;29.01;99469.91;4942644;28;20061;-96
2022/10/19 12:57:25;;;;;;;29.63;3.70;;;;;;;18.33;29.68;99474.72;4924258;29;20034;-95
2022/10/19 12:59:59;;;;;;;4.95;1.55;;;;;;;18.40;28.88;99485.13;4942130;28;20057;-92
2022/10/19 13:02:28;;;;;;;2.95;1.95;;;;;;;18.31;29.27;99457.06;4925274;28;20031;-93
2022/10/19 13:05:15;;;;;;;4.47;2.80;;;;;;;18.46;29.36;99467.50;4941485;28;20054;-93
2022/10/19 13:07:49;;;;;;;6.00;1.70;;;;;;;18.37;29.55;99453.06;4937925;28;20056;-91
2022/10/19 13:10:22;;;;;;;3.85;1.75;;;;;;;18.45;30.03;99463.19;4944342;28;20030;-92
2022/10/19 13:12:48;;;;;;;4.65;1.75;;;;;;;18.51;29.29;99458.38;4943169;28;20027;-94
2022/10/19 13:15:32;;;;;;;6.60;2.90;;;;;;;18.56;29.68;99469.13;4929210;28;20039;-93
2022/10/19 13:17:58;;;;;;;4.72;2.13;;;;;;;18.48;29.66;99462.53;4959412;28;20035;-93
2022/10/19 13:20:27;;;;;;;2.88;1.67;;;;;;;18.57;29.81;99465.28;4934495;28;20488;-92